Time;durP1;ratioP1;P1;durP2;ratioP2;P2;SDS_P1;SDS_P2;PMS_P1;PMS_P2;Temp;Humidity;BMP_temperature;BMP_pressure;BME280_temperature;BME280_humidity;BME280_pressure;Samples;Min_cycle;Max_cycle;Signal;HPM_P1;HPM_P2
2022/05/22 00:00:13;;;;;;;14.95;4.18;;;10.50;99.90;;;;;;4935871;28;20463;-80
2022/05/22 00:02:40;;;;;;;13.85;3.47;;;10.50;99.90;;;;;;4953045;29;20412;-81
2022/05/22 00:05:08;;;;;;;8.75;3.03;;;10.60;99.90;;;;;;4953022;29;20117;-80
2022/05/22 00:07:34;;;;;;;8.57;3.20;;;10.50;99.90;;;;;;4955399;29;20102;-83
2022/05/22 00:10:01;;;;;;;12.77;3.58;;;10.50;99.90;;;;;;4941549;29;20047;-81
2022/05/22 00:12:27;;;;;;;18.30;5.70;;;10.50;99.90;;;;;;4937166;29;20054;-81
2022/05/22 00:14:53;;;;;;;18.48;4.32;;;10.50;99.90;;;;;;4953014;29;20063;-80
2022/05/22 00:17:19;;;;;;;12.55;4.55;;;10.50;99.90;;;;;;4953003;29;20047;-81
2022/05/22 00:19:45;;;;;;;11.65;4.20;;;10.50;99.90;;;;;;4952843;29;20114;-81
2022/05/22 00:22:12;;;;;;;12.45;4.70;;;10.50;99.90;;;;;;4953120;29;20043;-81
2022/05/22 00:24:38;;;;;;;11.27;4.57;;;10.50;99.90;;;;;;4953341;29;20113;-80
2022/05/22 00:27:05;;;;;;;11.52;4.85;;;10.50;99.90;;;;;;4941212;29;20050;-80
2022/05/22 00:29:31;;;;;;;15.65;5.03;;;10.40;99.90;;;;;;4935627;29;20051;-80
2022/05/22 00:31:58;;;;;;;13.32;4.18;;;10.40;99.90;;;;;;4952864;29;20062;-81
2022/05/22 00:34:24;;;;;;;11.93;5.70;;;10.40;99.90;;;;;;4952799;29;20059;-79
2022/05/22 00:36:50;;;;;;;14.32;4.60;;;10.40;99.90;;;;;;4956810;29;20066;-81
2022/05/22 00:39:16;;;;;;;10.50;4.25;;;10.40;99.90;;;;;;4953581;29;20051;-79
2022/05/22 00:41:48;;;;;;;15.43;4.72;;;10.40;99.90;;;;;;4955125;29;20502;-80
2022/05/22 00:44:15;;;;;;;14.23;6.05;;;10.30;99.90;;;;;;4957594;29;20098;-80
2022/05/22 00:46:41;;;;;;;18.35;5.65;;;10.30;99.90;;;;;;4958005;29;20078;-80
2022/05/22 00:49:12;;;;;;;12.35;5.93;;;10.30;99.90;;;;;;4924893;29;20146;-81
2022/05/22 00:51:47;;;;;;;15.18;5.55;;;10.30;99.90;;;;;;4935473;29;20488;-81
2022/05/22 00:54:26;;;;;;;18.98;5.78;;;10.30;99.90;;;;;;4952810;29;20464;-80
2022/05/22 00:56:58;;;;;;;11.90;5.15;;;10.30;99.90;;;;;;4952321;28;20492;-79
2022/05/22 00:59:29;;;;;;;16.48;5.88;;;10.30;99.90;;;;;;4966610;28;20117;-79
2022/05/22 01:01:58;;;;;;;18.73;6.85;;;10.30;99.90;;;;;;4971826;28;20047;-80
2022/05/22 01:04:28;;;;;;;15.77;7.15;;;10.30;99.90;;;;;;4955323;28;20069;-87
2022/05/22 01:06:54;;;;;;;11.90;6.15;;;10.30;99.90;;;;;;4975426;28;20042;-85
2022/05/22 01:09:21;;;;;;;13.20;5.60;;;10.30;99.90;;;;;;4959286;28;20050;-79
2022/05/22 01:11:52;;;;;;;17.67;6.18;;;10.30;99.90;;;;;;4958156;28;20485;-80
2022/05/22 01:14:22;;;;;;;17.95;6.00;;;10.30;99.90;;;;;;4963987;28;20043;-80
2022/05/22 01:16:50;;;;;;;17.92;6.00;;;10.20;99.90;;;;;;4959306;28;20054;-81
2022/05/22 01:19:21;;;;;;;12.85;4.93;;;10.20;99.90;;;;;;4959370;28;20050;-87
2022/05/22 01:21:50;;;;;;;15.63;6.57;;;10.20;99.90;;;;;;4957669;28;20138;-83
2022/05/22 01:24:16;;;;;;;16.40;5.65;;;10.20;99.90;;;;;;4975012;28;20545;-80
2022/05/22 01:26:42;;;;;;;12.02;5.88;;;10.20;99.90;;;;;;4945002;28;20093;-81
2022/05/22 01:29:08;;;;;;;13.00;5.43;;;10.20;99.90;;;;;;4975160;28;20399;-88
2022/05/22 01:31:34;;;;;;;8.68;4.55;;;10.20;99.90;;;;;;4975396;28;20044;-83
2022/05/22 01:34:00;;;;;;;10.38;4.45;;;10.20;99.90;;;;;;4958893;28;20482;-83
2022/05/22 01:36:25;;;;;;;8.75;4.18;;;10.10;99.90;;;;;;4959060;28;20042;-80
2022/05/22 01:38:51;;;;;;;10.05;4.40;;;10.10;99.90;;;;;;4974966;28;20503;-82
2022/05/22 01:41:17;;;;;;;10.27;4.95;;;10.10;99.90;;;;;;4965871;28;20142;-87
2022/05/22 01:43:43;;;;;;;9.45;4.50;;;10.10;99.90;;;;;;4962835;28;20051;-83
2022/05/22 01:46:09;;;;;;;9.98;4.45;;;10.10;99.90;;;;;;4974640;28;20514;-83
2022/05/22 01:48:36;;;;;;;11.50;4.30;;;10.00;99.90;;;;;;4974546;28;20135;-80
2022/05/22 01:51:04;;;;;;;7.50;4.50;;;10.10;99.90;;;;;;4973551;28;20058;-79
2022/05/22 01:53:30;;;;;;;10.95;4.30;;;10.00;99.90;;;;;;4975318;28;20133;-82
2022/05/22 01:55:56;;;;;;;8.27;4.28;;;10.00;99.90;;;;;;4959889;28;20105;-82
2022/05/22 01:58:22;;;;;;;12.73;5.40;;;9.90;99.90;;;;;;4975836;28;20063;-80
2022/05/22 02:00:48;;;;;;;14.55;5.47;;;10.00;99.90;;;;;;4958765;28;20411;-81
2022/05/22 02:03:14;;;;;;;12.00;5.20;;;9.90;99.90;;;;;;4979343;28;20137;-87
2022/05/22 02:05:40;;;;;;;8.60;3.47;;;9.90;99.90;;;;;;4976345;28;20450;-85
2022/05/22 02:08:26;;;;;;;9.73;4.70;;;9.90;99.90;;;;;;4965892;28;20063;-82
2022/05/22 02:10:58;;;;;;;11.07;4.45;;;9.90;99.90;;;;;;4958035;28;20138;-79
2022/05/22 02:13:27;;;;;;;9.10;4.35;;;9.80;99.90;;;;;;4958310;28;20407;-84
2022/05/22 02:15:53;;;;;;;10.52;4.90;;;9.80;99.90;;;;;;4974675;28;20054;-85
2022/05/22 02:18:19;;;;;;;12.93;5.40;;;9.80;99.90;;;;;;4959387;28;20089;-83
2022/05/22 02:20:47;;;;;;;16.63;5.70;;;9.80;99.90;;;;;;4977914;28;20444;-83
2022/05/22 02:23:15;;;;;;;16.48;6.15;;;9.70;99.90;;;;;;4974294;28;20051;-85
2022/05/22 02:25:44;;;;;;;14.38;6.90;;;9.70;99.90;;;;;;4973983;28;20051;-83
2022/05/22 02:28:14;;;;;;;14.20;5.47;;;9.70;99.90;;;;;;4958747;28;20475;-78
2022/05/22 02:30:42;;;;;;;12.05;5.60;;;9.70;99.90;;;;;;4981321;28;20046;-78
2022/05/22 02:33:09;;;;;;;14.65;7.13;;;9.70;99.90;;;;;;4975304;28;20055;-80
2022/05/22 02:35:36;;;;;;;10.27;5.45;;;9.70;99.90;;;;;;4957725;28;20055;-86
2022/05/22 02:38:02;;;;;;;15.35;6.25;;;9.70;99.90;;;;;;4983582;28;20051;-79
2022/05/22 02:40:30;;;;;;;15.68;7.05;;;9.70;99.90;;;;;;4974181;28;20054;-79
2022/05/22 02:42:57;;;;;;;15.63;7.63;;;9.70;99.90;;;;;;4973735;28;20403;-79
2022/05/22 02:45:25;;;;;;;19.55;7.55;;;9.70;99.90;;;;;;4956452;28;20063;-77
2022/05/22 02:47:52;;;;;;;14.93;6.55;;;9.70;99.90;;;;;;4955980;28;20112;-78
2022/05/22 02:50:21;;;;;;;14.07;6.07;;;9.70;99.90;;;;;;4973794;28;20086;-80
2022/05/22 02:52:48;;;;;;;15.85;5.80;;;9.70;99.90;;;;;;4947839;28;20082;-79
2022/05/22 02:55:14;;;;;;;9.30;4.90;;;9.60;99.90;;;;;;4960947;28;20077;-78
2022/05/22 02:57:40;;;;;;;12.15;5.78;;;9.60;99.90;;;;;;4982986;28;20050;-78
2022/05/22 03:00:11;;;;;;;11.45;4.43;;;9.60;99.90;;;;;;4976050;28;20211;-82
2022/05/22 03:02:37;;;;;;;12.68;5.28;;;9.50;99.90;;;;;;4973483;28;20054;-84
2022/05/22 03:05:04;;;;;;;14.43;4.43;;;9.60;99.90;;;;;;4974465;28;20054;-84
2022/05/22 03:07:30;;;;;;;12.95;5.13;;;9.60;99.90;;;;;;4976036;28;20395;-82
2022/05/22 03:09:55;;;;;;;10.40;4.85;;;9.60;99.90;;;;;;4973857;28;20057;-84
2022/05/22 03:12:24;;;;;;;10.70;5.13;;;9.60;99.90;;;;;;4973686;28;20054;-81
2022/05/22 03:14:54;;;;;;;12.77;5.43;;;9.60;99.90;;;;;;4974023;28;20498;-79
2022/05/22 03:17:21;;;;;;;11.43;5.88;;;9.60;99.90;;;;;;4959432;28;20058;-79
2022/05/22 03:19:47;;;;;;;12.18;5.72;;;9.60;99.90;;;;;;4976831;28;20130;-84
2022/05/22 03:22:14;;;;;;;10.02;5.80;;;9.60;99.90;;;;;;4974258;28;20109;-85
2022/05/22 03:24:40;;;;;;;11.23;5.82;;;9.60;99.90;;;;;;4973720;28;20138;-84
2022/05/22 03:27:10;;;;;;;12.85;6.97;;;9.60;99.90;;;;;;4957319;28;20098;-82
2022/05/22 03:29:37;;;;;;;20.83;8.80;;;9.60;99.90;;;;;;4973317;28;20062;-79
2022/05/22 03:32:04;;;;;;;14.07;8.23;;;9.60;99.90;;;;;;4955244;28;20502;-84
2022/05/22 03:34:30;;;;;;;19.02;9.55;;;9.60;99.90;;;;;;4955856;28;20515;-84
2022/05/22 03:36:56;;;;;;;16.88;6.85;;;9.60;99.90;;;;;;4973547;28;20530;-81
2022/05/22 03:39:22;;;;;;;13.40;6.78;;;9.60;99.90;;;;;;4974750;28;20051;-80
2022/05/22 03:41:49;;;;;;;9.50;5.78;;;9.60;99.90;;;;;;4975561;28;20073;-84
2022/05/22 03:44:15;;;;;;;12.95;6.10;;;9.60;99.90;;;;;;4981958;28;20050;-82
2022/05/22 03:46:40;;;;;;;8.95;5.22;;;9.60;99.90;;;;;;4974052;28;20043;-82
2022/05/22 03:49:06;;;;;;;11.00;5.47;;;9.60;99.90;;;;;;4975094;28;20050;-84
2022/05/22 03:51:32;;;;;;;12.38;5.80;;;9.60;99.90;;;;;;4976976;28;20503;-81
2022/05/22 03:53:59;;;;;;;10.90;5.50;;;9.60;99.90;;;;;;4960043;28;20054;-79
2022/05/22 03:56:25;;;;;;;12.35;6.18;;;9.60;99.90;;;;;;4956253;28;20055;-83
2022/05/22 03:58:50;;;;;;;11.68;5.32;;;9.60;99.90;;;;;;4941084;28;20065;-79
2022/05/22 04:01:16;;;;;;;9.55;5.30;;;9.60;99.90;;;;;;4979618;28;20058;-82
2022/05/22 04:03:42;;;;;;;16.80;5.82;;;9.60;99.90;;;;;;4976826;28;20089;-80
2022/05/22 04:06:11;;;;;;;13.40;6.20;;;9.60;99.90;;;;;;4955279;28;20062;-82
2022/05/22 04:08:37;;;;;;;9.00;4.13;;;9.60;99.90;;;;;;4957091;28;20109;-80
2022/05/22 04:11:11;;;;;;;14.95;5.50;;;9.60;99.90;;;;;;4975260;28;20587;-79
2022/05/22 04:13:37;;;;;;;11.17;5.43;;;9.60;99.90;;;;;;4958393;28;20125;-84
2022/05/22 04:16:03;;;;;;;8.00;4.47;;;9.60;99.90;;;;;;4974617;28;20496;-80
2022/05/22 04:18:29;;;;;;;12.48;5.20;;;9.70;99.90;;;;;;4940043;28;20102;-81
2022/05/22 04:20:55;;;;;;;18.17;6.45;;;9.70;99.90;;;;;;4944557;28;20522;-81
2022/05/22 04:26:06;;;;;;;19.53;6.20;;;9.70;99.90;;;;;;4972256;28;20508;-82
2022/05/22 04:28:33;;;;;;;11.93;5.10;;;9.70;99.90;;;;;;4972906;28;20062;-78
2022/05/22 04:30:59;;;;;;;14.73;6.38;;;9.80;99.90;;;;;;4972530;28;20117;-79
2022/05/22 04:33:26;;;;;;;8.45;4.95;;;9.80;99.90;;;;;;4973206;28;20116;-80
2022/05/22 04:35:52;;;;;;;11.73;6.22;;;9.80;99.90;;;;;;4977590;28;20142;-79
2022/05/22 04:38:19;;;;;;;17.92;7.32;;;9.90;99.90;;;;;;4956855;28;20058;-79
2022/05/22 04:40:58;;;;;;;14.60;6.82;;;9.90;99.90;;;;;;4971989;28;20062;-79
2022/05/22 04:43:25;;;;;;;12.40;6.68;;;10.00;99.90;;;;;;4957534;28;20046;-80
2022/05/22 04:45:52;;;;;;;10.27;7.07;;;10.00;99.90;;;;;;4958521;28;20062;-79
2022/05/22 04:48:19;;;;;;;17.65;8.70;;;10.10;99.90;;;;;;4975282;28;20514;-80
2022/05/22 04:50:50;;;;;;;20.95;8.15;;;10.20;99.90;;;;;;4958469;28;20050;-80
2022/05/22 04:53:18;;;;;;;13.13;7.68;;;10.20;99.90;;;;;;4976058;28;20534;-84
2022/05/22 04:55:44;;;;;;;19.83;8.27;;;10.20;99.90;;;;;;4978761;28;20108;-80
2022/05/22 04:58:12;;;;;;;15.88;7.68;;;10.30;99.90;;;;;;4963593;28;20074;-79
2022/05/22 05:00:38;;;;;;;15.55;7.40;;;10.40;99.90;;;;;;4964313;28;20106;-79
2022/05/22 05:03:04;;;;;;;15.20;7.57;;;10.50;99.90;;;;;;4986927;28;20050;-81
2022/05/22 05:05:30;;;;;;;14.40;6.78;;;10.60;99.90;;;;;;4977409;28;20054;-84
2022/05/22 05:07:57;;;;;;;16.58;7.00;;;10.60;99.90;;;;;;4975796;28;20046;-80
2022/05/22 05:10:24;;;;;;;16.25;7.85;;;10.70;99.90;;;;;;4975417;28;20054;-81
2022/05/22 05:12:50;;;;;;;19.27;9.68;;;10.80;99.90;;;;;;4974763;28;20053;-80
2022/05/22 05:15:18;;;;;;;19.45;8.50;;;10.90;99.90;;;;;;4959005;28;20090;-82
2022/05/22 05:17:45;;;;;;;15.88;6.95;;;10.90;99.90;;;;;;4944554;28;20055;-87
2022/05/22 05:20:13;;;;;;;20.48;10.02;;;11.10;99.90;;;;;;4962589;28;20055;-80
2022/05/22 05:22:39;;;;;;;20.40;10.30;;;11.20;99.90;;;;;;4974328;28;20105;-81
2022/05/22 05:25:06;;;;;;;26.70;11.07;;;11.40;99.90;;;;;;4957990;28;20499;-82
2022/05/22 05:27:32;;;;;;;23.15;9.27;;;11.50;99.90;;;;;;4977621;28;20112;-80
2022/05/22 05:29:58;;;;;;;21.42;9.93;;;11.70;99.90;;;;;;4982062;28;20446;-79
2022/05/22 05:32:25;;;;;;;23.50;9.88;;;11.80;99.90;;;;;;4957592;28;20554;-79
2022/05/22 05:34:59;;;;;;;24.30;11.88;;;11.90;99.90;;;;;;4975723;28;20054;-80
2022/05/22 05:37:25;;;;;;;25.17;12.85;;;12.00;99.90;;;;;;4975644;28;20078;-80
2022/05/22 05:39:52;;;;;;;27.38;9.27;;;12.20;99.90;;;;;;4957648;28;20101;-81
2022/05/22 05:42:19;;;;;;;23.45;10.00;;;12.30;99.90;;;;;;4958792;28;20054;-87
2022/05/22 05:44:45;;;;;;;28.45;9.70;;;12.50;99.90;;;;;;4982204;28;20054;-85
2022/05/22 05:47:11;;;;;;;22.55;10.35;;;12.60;99.90;;;;;;4984370;28;20065;-87
2022/05/22 05:49:38;;;;;;;25.38;8.68;;;12.70;99.90;;;;;;4982668;28;20055;-80
2022/05/22 05:52:05;;;;;;;20.50;9.68;;;12.90;99.90;;;;;;4969450;28;20058;-82
2022/05/22 05:54:31;;;;;;;18.45;8.25;;;13.00;99.90;;;;;;4974179;28;20046;-81
2022/05/22 05:56:58;;;;;;;22.48;9.10;;;13.10;99.90;;;;;;4974657;28;20126;-82
2022/05/22 05:59:27;;;;;;;25.95;8.95;;;13.30;99.90;;;;;;4956590;28;20118;-83
2022/05/22 06:01:53;;;;;;;22.13;8.13;;;13.30;99.90;;;;;;4973768;28;20078;-82
2022/05/22 06:04:20;;;;;;;20.85;7.93;;;13.50;99.90;;;;;;4958194;28;20090;-81
2022/05/22 06:06:46;;;;;;;18.40;7.88;;;13.60;99.90;;;;;;4960003;28;20473;-82
2022/05/22 06:09:13;;;;;;;21.65;8.38;;;13.70;99.90;;;;;;4959487;28;20158;-85
2022/05/22 06:11:39;;;;;;;25.00;8.38;;;13.70;99.90;;;;;;4977241;28;20051;-85
2022/05/22 06:14:05;;;;;;;22.98;8.07;;;13.80;99.90;;;;;;4976813;28;20475;-85
2022/05/22 06:16:31;;;;;;;23.83;8.45;;;13.90;99.90;;;;;;4982898;28;20051;-84
2022/05/22 06:18:57;;;;;;;24.00;7.93;;;14.10;99.90;;;;;;4958361;28;20134;-81
2022/05/22 06:21:23;;;;;;;20.40;7.90;;;14.20;99.90;;;;;;4957302;28;20138;-81
2022/05/22 06:23:50;;;;;;;20.02;7.18;;;14.40;99.90;;;;;;4977120;28;20055;-82
2022/05/22 06:26:18;;;;;;;11.70;6.00;;;14.50;99.90;;;;;;4974080;28;20058;-81
2022/05/22 06:28:45;;;;;;;15.10;5.85;;;14.70;99.90;;;;;;4973563;28;20085;-83
2022/05/22 06:31:12;;;;;;;21.35;6.07;;;14.70;99.90;;;;;;4924442;28;20054;-82
2022/05/22 06:33:38;;;;;;;18.65;5.78;;;14.80;99.90;;;;;;4974444;28;20051;-82
2022/05/22 06:36:13;;;;;;;19.15;6.07;;;15.00;99.90;;;;;;4959234;28;20214;-81
2022/05/22 06:41:25;;;;;;;16.17;4.53;;;15.30;99.90;;;;;;4976743;28;20054;-81
2022/05/22 06:43:52;;;;;;;15.57;5.05;;;15.40;99.90;;;;;;4977413;28;20066;-84
2022/05/22 06:46:26;;;;;;;17.58;4.90;;;15.50;99.90;;;;;;4960130;28;20046;-80
2022/05/22 06:48:52;;;;;;;;;;;15.60;99.90;;;;;;4961167;28;20070;-81
2022/05/22 06:51:19;;;;;;;16.30;5.00;;;15.60;99.90;;;;;;4959804;28;19922;-82
2022/05/22 06:53:45;;;;;;;18.58;5.22;;;15.80;99.90;;;;;;4978544;28;20047;-84
2022/05/22 06:56:11;;;;;;;17.30;5.13;;;15.90;99.90;;;;;;4977007;28;20125;-82
2022/05/22 06:58:39;;;;;;;14.05;5.15;;;16.10;99.90;;;;;;4981799;28;20569;-82
2022/05/22 07:01:05;;;;;;;14.18;5.13;;;16.10;99.90;;;;;;4975481;28;20046;-84
2022/05/22 07:03:31;;;;;;;20.88;6.25;;;16.30;99.90;;;;;;4960654;28;20435;-83
2022/05/22 07:05:57;;;;;;;13.57;6.20;;;16.30;99.90;;;;;;4982338;28;20042;-85
2022/05/22 07:08:23;;;;;;;17.80;6.63;;;16.30;99.90;;;;;;4956523;28;20560;-88
2022/05/22 07:13:33;;;;;;;17.33;5.93;;;16.40;99.90;;;;;;4973903;28;20055;-84
2022/05/22 07:16:04;;;;;;;19.67;6.47;;;16.50;99.90;;;;;;4974845;28;20718;-83
2022/05/22 07:18:30;;;;;;;20.88;5.85;;;16.70;99.90;;;;;;4945606;28;20057;-81
2022/05/22 07:20:57;;;;;;;16.30;5.97;;;16.80;99.90;;;;;;4964956;28;20137;-82
2022/05/22 07:23:23;;;;;;;14.50;5.43;;;16.70;99.90;;;;;;4975602;28;20108;-81
2022/05/22 07:25:51;;;;;;;16.75;5.55;;;16.90;99.90;;;;;;4974184;28;20089;-85
2022/05/22 07:28:17;;;;;;;15.75;5.68;;;16.90;99.90;;;;;;4973161;28;20145;-85
2022/05/22 07:30:43;;;;;;;13.00;5.05;;;16.90;99.90;;;;;;4973297;28;20042;-85
2022/05/22 07:33:09;;;;;;;15.52;5.10;;;16.90;99.90;;;;;;4975281;28;20055;-82
2022/05/22 07:35:35;;;;;;;15.27;4.38;;;17.00;99.90;;;;;;4978702;28;20051;-83
2022/05/22 07:38:02;;;;;;;8.82;4.20;;;17.10;99.90;;;;;;4959330;28;20110;-85
2022/05/22 07:40:29;;;;;;;12.98;4.28;;;17.30;99.90;;;;;;4960742;28;20153;-83
2022/05/22 07:42:56;;;;;;;16.80;5.50;;;17.50;99.90;;;;;;4964704;28;20057;-82
2022/05/22 07:45:22;;;;;;;13.13;4.50;;;17.60;99.90;;;;;;4956668;28;20113;-82
2022/05/22 07:47:49;;;;;;;14.85;4.25;;;17.50;99.90;;;;;;4939840;28;20055;-81
2022/05/22 07:50:17;;;;;;;13.73;3.97;;;17.80;99.90;;;;;;4939689;28;20133;-84
2022/05/22 07:52:47;;;;;;;10.77;3.50;;;17.90;99.90;;;;;;4973288;28;20051;-88
2022/05/22 07:55:15;;;;;;;13.77;3.60;;;18.00;99.90;;;;;;4972951;28;20051;-83
2022/05/22 07:57:45;;;;;;;10.10;3.05;;;18.10;99.90;;;;;;4972725;28;20077;-80
2022/05/22 08:00:14;;;;;;;10.63;3.72;;;18.30;99.90;;;;;;4938512;29;20117;-82
2022/05/22 08:02:41;;;;;;;9.75;2.88;;;18.50;99.90;;;;;;4921324;29;20051;-83
2022/05/22 08:05:09;;;;;;;8.23;2.85;;;18.50;99.90;;;;;;4956401;29;20106;-89
2022/05/22 08:07:35;;;;;;;9.15;2.70;;;18.60;99.90;;;;;;4943588;29;20047;-81
2022/05/22 08:10:02;;;;;;;11.20;2.80;;;18.80;99.90;;;;;;4954187;29;20494;-83
2022/05/22 08:12:28;;;;;;;8.35;2.15;;;18.80;99.90;;;;;;4937181;29;20047;-82
2022/05/22 08:14:54;;;;;;;9.73;2.15;;;18.80;99.90;;;;;;4958458;29;20051;-86
2022/05/22 08:17:21;;;;;;;11.85;2.65;;;19.00;99.90;;;;;;4959738;28;20518;-87
2022/05/22 08:19:51;;;;;;;9.77;2.28;;;18.90;99.90;;;;;;4954744;29;20492;-83
2022/05/22 08:22:18;;;;;;;11.43;1.80;;;19.00;99.90;;;;;;4938447;29;20043;-82
2022/05/22 08:24:44;;;;;;;10.27;2.17;;;18.90;99.90;;;;;;4943069;29;20054;-84
2022/05/22 08:27:10;;;;;;;11.13;2.03;;;19.10;99.90;;;;;;4925836;29;20055;-81
2022/05/22 08:29:36;;;;;;;8.18;2.10;;;19.30;99.90;;;;;;4937681;29;20051;-81
2022/05/22 08:32:02;;;;;;;12.85;1.85;;;19.20;98.90;;;;;;4937801;29;20047;-82
2022/05/22 08:34:28;;;;;;;5.80;2.00;;;19.30;99.20;;;;;;4923600;29;20055;-83
2022/05/22 08:36:54;;;;;;;6.72;1.55;;;19.30;98.90;;;;;;4940062;29;20057;-82
2022/05/22 08:39:20;;;;;;;5.72;1.75;;;19.40;99.90;;;;;;4940638;29;20055;-84
2022/05/22 08:41:51;;;;;;;15.18;3.20;;;19.30;99.70;;;;;;4956476;29;20077;-85
2022/05/22 08:44:29;;;;;;;7.75;2.78;;;19.60;98.70;;;;;;4954988;29;20086;-82
2022/05/22 08:47:17;;;;;;;6.93;1.77;;;19.80;97.90;;;;;;4936327;29;20769;-82
2022/05/22 08:49:54;;;;;;;7.90;1.73;;;19.90;98.60;;;;;;4952631;29;20059;-86
2022/05/22 08:52:41;;;;;;;8.10;2.22;;;20.10;98.90;;;;;;4954126;29;20079;-82
2022/05/22 08:55:18;;;;;;;7.38;1.75;;;20.20;97.20;;;;;;4953258;28;20118;-84
2022/05/22 09:00:38;;;;;;;6.82;1.67;;;20.20;97.40;;;;;;4955127;29;20055;-84
2022/05/22 09:03:24;;;;;;;10.27;2.00;;;20.00;97.70;;;;;;4942842;29;20118;-86
2022/05/22 09:05:55;;;;;;;8.80;1.60;;;20.50;96.60;;;;;;4953878;29;20062;-84
2022/05/22 09:08:29;;;;;;;7.93;2.13;;;20.70;97.00;;;;;;4936682;29;20402;-84
2022/05/22 09:11:08;;;;;;;;;;;20.60;96.00;;;;;;4936985;29;20043;-83
2022/05/22 09:13:43;;;;;;;7.78;2.05;;;20.60;96.10;;;;;;4937779;29;19922;-85
2022/05/22 09:16:44;;;;;;;8.18;1.90;;;20.90;96.80;;;;;;4954240;29;20055;-86
2022/05/22 09:19:23;;;;;;;9.10;2.33;;;21.20;94.30;;;;;;4956735;29;20078;-88
2022/05/22 09:22:21;;;;;;;11.20;2.65;;;21.30;94.80;;;;;;4943053;29;20512;-83
2022/05/22 09:25:02;;;;;;;9.23;2.03;;;21.50;93.90;;;;;;4941528;29;20058;-84
2022/05/22 09:27:46;;;;;;;9.32;1.80;;;21.80;93.80;;;;;;4948420;29;20075;-83
2022/05/22 09:30:35;;;;;;;11.38;2.90;;;21.90;94.10;;;;;;4960521;28;20059;-85
2022/05/22 09:33:20;;;;;;;8.10;2.47;;;21.40;92.40;;;;;;4960545;29;20059;-85
2022/05/22 09:36:10;;;;;;;8.63;2.20;;;21.40;94.10;;;;;;4958320;29;20396;-84
2022/05/22 09:38:51;;;;;;;6.68;1.75;;;21.80;92.30;;;;;;4945670;29;20139;-82
2022/05/22 09:41:23;;;;;;;6.88;2.28;;;22.10;94.00;;;;;;4955979;29;20043;-85
2022/05/22 09:44:11;;;;;;;6.95;2.05;;;22.20;91.70;;;;;;4955855;29;20496;-83
2022/05/22 09:46:58;;;;;;;7.00;2.55;;;22.30;92.40;;;;;;4938602;29;20062;-90
2022/05/22 09:49:37;;;;;;;9.07;1.92;;;22.20;90.70;;;;;;4955483;29;20138;-83
2022/05/22 09:52:28;;;;;;;9.60;2.13;;;22.30;92.40;;;;;;4955869;29;20051;-86
2022/05/22 09:55:19;;;;;;;10.45;2.35;;;22.30;92.30;;;;;;4938027;29;20141;-86
2022/05/22 09:58:05;;;;;;;8.98;2.45;;;22.40;92.30;;;;;;4938924;29;20058;-87
2022/05/22 10:00:57;;;;;;;8.40;2.38;;;22.50;92.20;;;;;;4966874;29;20078;-85
2022/05/22 10:03:55;;;;;;;7.32;2.25;;;22.20;91.10;;;;;;4938626;29;20063;-84
2022/05/22 10:06:58;;;;;;;5.68;2.10;;;22.20;92.00;;;;;;4924953;29;20475;-82
2022/05/22 10:09:45;;;;;;;8.38;2.03;;;22.40;91.50;;;;;;4938057;29;20087;-82
2022/05/22 10:12:40;;;;;;;6.63;2.17;;;22.50;90.40;;;;;;4954615;29;20054;-82
2022/05/22 10:15:26;;;;;;;9.87;2.60;;;22.50;91.10;;;;;;4960339;29;20055;-83
2022/05/22 10:17:58;;;;;;;6.43;2.15;;;22.50;92.80;;;;;;4966555;29;20365;-83
2022/05/22 10:20:33;;;;;;;6.75;2.30;;;22.70;91.80;;;;;;4968100;29;20051;-86
2022/05/22 10:23:30;;;;;;;9.38;2.25;;;22.90;89.70;;;;;;4957115;29;20066;-84
2022/05/22 10:26:14;;;;;;;5.82;1.75;;;22.90;89.00;;;;;;4957562;29;20142;-83
2022/05/22 10:28:52;;;;;;;9.25;2.17;;;22.90;89.20;;;;;;4937814;29;20051;-83
2022/05/22 10:31:21;;;;;;;8.48;2.47;;;22.70;88.10;;;;;;4954846;29;20051;-85
2022/05/22 10:34:04;;;;;;;11.57;2.88;;;22.90;90.80;;;;;;4938810;29;20138;-85
2022/05/22 10:36:45;;;;;;;10.17;2.30;;;22.90;87.80;;;;;;4955262;29;20086;-86
2022/05/22 10:39:14;;;;;;;8.82;2.30;;;23.00;87.70;;;;;;4955837;29;20091;-87
2022/05/22 10:44:43;;;;;;;7.65;2.33;;;23.70;84.80;;;;;;4937438;29;20133;-85
2022/05/22 10:47:09;;;;;;;8.50;2.08;;;24.00;86.40;;;;;;4937990;29;20059;-86
2022/05/22 10:49:45;;;;;;;9.90;2.47;;;24.20;84.90;;;;;;4955009;29;20091;-89
2022/05/22 10:52:21;;;;;;;10.32;2.45;;;24.30;82.60;;;;;;4955762;29;20055;-90
2022/05/22 10:54:51;;;;;;;7.60;2.00;;;24.20;73.70;;;;;;4956827;28;20503;-89
2022/05/22 10:57:29;;;;;;;7.40;1.80;;;24.40;76.80;;;;;;4956307;29;20051;-86
2022/05/22 10:59:56;;;;;;;6.65;1.35;;;24.50;72.60;;;;;;4972091;28;20562;-84
2022/05/22 11:02:25;;;;;;;8.60;2.70;;;24.70;78.70;;;;;;4973992;28;20060;-83
2022/05/22 11:04:53;;;;;;;6.57;1.73;;;25.10;76.70;;;;;;4973832;28;20050;-84
2022/05/22 11:07:28;;;;;;;9.13;2.17;;;24.20;71.00;;;;;;4957490;28;20054;-84
2022/05/22 11:09:56;;;;;;;7.93;2.15;;;23.80;73.50;;;;;;4980704;28;20137;-86
2022/05/22 11:12:27;;;;;;;8.55;2.33;;;23.70;74.20;;;;;;4960353;28;20138;-83
2022/05/22 11:15:09;;;;;;;6.78;1.88;;;24.00;79.20;;;;;;4963599;28;20463;-84
2022/05/22 11:17:35;;;;;;;8.48;1.65;;;24.50;72.70;;;;;;4963474;28;20047;-84
2022/05/22 11:20:10;;;;;;;9.48;2.30;;;24.80;78.10;;;;;;4975134;28;20058;-85
2022/05/22 11:23:00;;;;;;;8.95;1.90;;;25.00;71.70;;;;;;4957992;28;20128;-86
2022/05/22 11:26:03;;;;;;;7.90;2.03;;;25.00;66.50;;;;;;4939853;28;20055;-84
2022/05/22 11:28:41;;;;;;;9.10;2.38;;;25.50;73.00;;;;;;4871968;28;20505;-86
2022/05/22 11:31:58;;;;;;;7.03;2.05;;;25.60;72.00;;;;;;4939801;28;20051;-83
2022/05/22 11:35:04;;;;;;;6.45;1.95;;;25.50;71.80;;;;;;4920672;28;20414;-84
2022/05/22 11:37:41;;;;;;;11.48;2.53;;;25.40;68.00;;;;;;4976932;28;20057;-86
2022/05/22 11:40:46;;;;;;;6.57;1.92;;;25.20;69.20;;;;;;4976763;28;20051;-85
2022/05/22 11:44:11;;;;;;;6.78;2.00;;;24.80;72.80;;;;;;4960953;28;20057;-84
2022/05/22 11:46:58;;;;;;;7.13;2.38;;;24.50;75.40;;;;;;4883167;29;20053;-87
2022/05/22 11:49:33;;;;;;;13.73;3.67;;;24.30;80.70;;;;;;4967490;28;20477;-86
2022/05/22 11:52:56;;;;;;;8.52;2.35;;;24.20;81.80;;;;;;4955782;28;20062;-86
2022/05/22 11:55:38;;;;;;;9.20;2.42;;;24.20;80.20;;;;;;4859848;29;20056;-85
2022/05/22 11:58:32;;;;;;;8.65;2.22;;;24.90;78.00;;;;;;4971149;28;20051;-84
2022/05/22 12:01:04;;;;;;;9.32;2.65;;;24.90;81.80;;;;;;4972829;28;20134;-84
2022/05/22 12:03:46;;;;;;;7.30;2.25;;;25.30;77.00;;;;;;4972484;28;20058;-85
2022/05/22 12:06:43;;;;;;;6.65;1.88;;;25.60;70.10;;;;;;4972660;28;20074;-84
2022/05/22 12:09:14;;;;;;;6.30;1.80;;;26.00;74.60;;;;;;4948463;28;20061;-86
2022/05/22 12:12:08;;;;;;;8.13;2.38;;;26.30;66.20;;;;;;4972941;28;20491;-84
2022/05/22 12:15:01;;;;;;;7.88;2.20;;;26.80;70.30;;;;;;4977557;28;20047;-85
2022/05/22 12:17:45;;;;;;;6.47;2.08;;;27.00;62.60;;;;;;4984084;28;20486;-85
2022/05/22 12:20:24;;;;;;;10.10;1.88;;;26.40;60.50;;;;;;4982773;28;20051;-87
2022/05/22 12:23:13;;;;;;;5.45;1.90;;;26.00;62.80;;;;;;4957815;28;20050;-86
2022/05/22 12:25:55;;;;;;;10.00;2.33;;;25.90;65.10;;;;;;4972791;28;20158;-86
2022/05/22 12:28:24;;;;;;;6.38;1.90;;;25.50;66.40;;;;;;4955927;28;20054;-86
2022/05/22 12:30:53;;;;;;;6.70;1.75;;;25.30;72.00;;;;;;4955838;28;20447;-88
2022/05/22 12:33:19;;;;;;;6.45;1.65;;;25.80;72.60;;;;;;4973515;28;20039;-89
2022/05/22 12:35:45;;;;;;;7.88;1.50;;;26.10;68.10;;;;;;4957535;28;20086;-85
2022/05/22 12:38:13;;;;;;;11.27;2.13;;;26.00;67.90;;;;;;4960702;28;20046;-86
2022/05/22 12:40:39;;;;;;;9.10;2.10;;;26.60;71.80;;;;;;4956775;28;20054;-85
2022/05/22 12:43:07;;;;;;;6.85;1.60;;;27.30;67.80;;;;;;4971562;28;20043;-84
2022/05/22 12:45:34;;;;;;;6.53;1.67;;;27.50;65.40;;;;;;4972684;28;20069;-85
2022/05/22 12:48:23;;;;;;;4.95;1.67;;;27.90;62.90;;;;;;4955804;28;20047;-86
2022/05/22 12:50:52;;;;;;;6.55;1.50;;;28.40;60.90;;;;;;4972914;28;20043;-86
2022/05/22 12:53:29;;;;;;;8.20;1.65;;;28.60;59.60;;;;;;4972905;28;20050;-85
2022/05/22 12:55:55;;;;;;;8.98;2.03;;;28.20;56.00;;;;;;4973770;28;20399;-85
2022/05/22 12:58:50;;;;;;;6.82;1.65;;;28.40;58.30;;;;;;4961802;28;20461;-85
2022/05/22 13:01:39;;;;;;;;;;;28.20;55.10;;;;;;4961199;28;20570;-86
2022/05/22 13:04:27;;;;;;;7.72;1.38;;;27.50;54.80;;;;;;4973291;28;19929;-87
2022/05/22 13:07:02;;;;;;;6.95;1.98;;;27.70;59.00;;;;;;4977861;28;20055;-87
2022/05/22 13:09:30;;;;;;;5.30;1.75;;;28.10;57.50;;;;;;4959675;28;20054;-87
2022/05/22 13:12:23;;;;;;;9.82;1.92;;;27.90;54.30;;;;;;4975526;28;20082;-86
2022/05/22 13:18:31;;;;;;;6.78;2.17;;;28.00;53.90;;;;;;4975484;28;20446;-85
2022/05/22 13:21:02;;;;;;;5.90;1.77;;;28.20;53.30;;;;;;4975980;28;20177;-85
2022/05/22 13:23:36;;;;;;;6.38;1.73;;;28.50;53.50;;;;;;4961788;28;20058;-84